Time;durP1;ratioP1;P1;durP2;ratioP2;P2;SDS_P1;SDS_P2;PMS_P1;PMS_P2;Temp;Humidity;BMP_temperature;BMP_pressure;BME280_temperature;BME280_humidity;BME280_pressure;Samples;Min_cycle;Max_cycle;Signal;HPM_P1;HPM_P2
2022/07/04 00:01:37;;;;;;;;;;;;;;;;;;5036126;28;20296;-21
2022/07/04 00:04:03;;;;;;;;;;;;;;;;;;5038210;28;19921;-23
2022/07/04 00:06:29;;;;;;;;;;;;;;;;;;5038514;28;20255;-22
2022/07/04 00:08:55;;;;;;;;;;;;;;;;;;5038343;28;19975;-21
2022/07/04 00:11:21;;;;;;;;;;;;;;;;;;5038398;28;19910;-23
2022/07/04 00:13:47;;;;;;;;;;;;;;;;;;5038277;28;19920;-21
2022/07/04 00:16:13;;;;;;;;;;;;;;;;;;5038886;28;19913;-22
2022/07/04 00:18:39;;;;;;;;;;;;;;;;;;5038586;28;19913;-21
2022/07/04 00:21:05;;;;;;;;;;;;;;;;;;5038284;28;19913;-21
2022/07/04 00:23:31;;;;;;;;;;;;;;;;;;5038157;28;19913;-22
2022/07/04 00:25:57;;;;;;;;;;;;;;;;;;5038041;28;19916;-21
2022/07/04 00:28:23;;;;;;;;;;;;;;;;;;5038424;28;19913;-22
2022/07/04 00:30:49;;;;;;;;;;;;;;;;;;5038092;28;19914;-22
2022/07/04 00:33:16;;;;;;;;;;;;;;;;;;5037933;28;19939;-21
2022/07/04 00:35:42;;;;;;;;;;;;;;;;;;5037884;28;20008;-24
2022/07/04 00:38:08;;;;;;;;;;;;;;;;;;5037999;28;19913;-25
2022/07/04 00:40:34;;;;;;;;;;;;;;;;;;5037899;28;20352;-23
2022/07/04 00:43:00;;;;;;;;;;;;;;;;;;5037840;28;19988;-22
2022/07/04 00:45:26;;;;;;;;;;;;;;;;;;5037834;28;20307;-22
2022/07/04 00:47:52;;;;;;;;;;;;;;;;;;5037699;28;19913;-21
2022/07/04 00:50:18;;;;;;;;;;;;;;;;;;5038256;28;19913;-23
2022/07/04 00:52:44;;;;;;;;;;;;;;;;;;5037646;28;19909;-24
2022/07/04 00:55:10;;;;;;;;;;;;;;;;;;5037524;28;19928;-22
2022/07/04 00:57:36;;;;;;;;;;;;;;;;;;5038388;28;19909;-22
2022/07/04 01:00:03;;;;;;;;;;;;;;;;;;5037573;28;20018;-21
2022/07/04 01:02:29;;;;;;;;;;;;;;;;;;5037539;28;20306;-21
2022/07/04 01:04:55;;;;;;;;;;;;;;;;;;5036548;28;19913;-22
2022/07/04 01:07:21;;;;;;;;;;;;;;;;;;5038002;28;19924;-22
2022/07/04 01:09:47;;;;;;;;;;;;;;;;;;5037625;28;19917;-21
2022/07/04 01:12:13;;;;;;;;;;;;;;;;;;5037019;28;19940;-21
2022/07/04 01:14:39;;;;;;;;;;;;;;;;;;5037026;28;19921;-21
2022/07/04 01:17:05;;;;;;;;;;;;;;;;;;5037276;28;19959;-22
2022/07/04 01:19:31;;;;;;;;;;;;;;;;;;5037141;28;19913;-21
2022/07/04 01:21:57;;;;;;;;;;;;;;;;;;5037072;28;19921;-21
2022/07/04 01:24:23;;;;;;;;;;;;;;;;;;5037148;28;19913;-22
2022/07/04 01:26:49;;;;;;;;;;;;;;;;;;5037082;28;19924;-22
2022/07/04 01:29:15;;;;;;;;;;;;;;;;;;5037084;28;19913;-21
2022/07/04 01:31:41;;;;;;;;;;;;;;;;;;5037277;28;19924;-22
2022/07/04 01:34:07;;;;;;;;;;;;;;;;;;5036802;28;20375;-22
2022/07/04 01:36:33;;;;;;;;;;;;;;;;;;5036783;28;19920;-21
2022/07/04 01:38:59;;;;;;;;;;;;;;;;;;5037083;28;19927;-22
2022/07/04 01:41:25;;;;;;;;;;;;;;;;;;5036776;28;19913;-22
2022/07/04 01:43:51;;;;;;;;;;;;;;;;;;5037243;28;20001;-22
2022/07/04 01:46:17;;;;;;;;;;;;;;;;;;5037410;28;19913;-21
2022/07/04 01:48:43;;;;;;;;;;;;;;;;;;5036537;28;20284;-22
2022/07/04 01:51:09;;;;;;;;;;;;;;;;;;5035597;28;20000;-21
2022/07/04 01:53:34;;;;;;;;;;;;;;;;;;5036798;28;19945;-21
2022/07/04 01:56:00;;;;;;;;;;;;;;;;;;5036325;28;19917;-23
2022/07/04 01:58:26;;;;;;;;;;;;;;;;;;5036488;28;19977;-21
2022/07/04 02:03:37;;;;;;;;;;;;;;;;;;5036163;28;19928;-21
2022/07/04 02:06:03;;;;;;;;;;;;;;;;;;5036279;28;20252;-21
2022/07/04 02:09:14;;;;;;;;;;;;;;;;;;5036536;28;19909;-22
2022/07/04 02:11:15;;;;;;;;;;;;;;;;;;5036065;28;19924;-22
2022/07/04 02:13:41;;;;;;;;;;;;;;;;;;5036137;28;19910;-22
2022/07/04 02:16:07;;;;;;;;;;;;;;;;;;5036072;28;19994;-22
2022/07/04 02:18:33;;;;;;;;;;;;;;;;;;5036121;28;19938;-23
2022/07/04 02:20:59;;;;;;;;;;;;;;;;;;5036044;28;20403;-21
2022/07/04 02:23:25;;;;;;;;;;;;;;;;;;5035826;28;19924;-22
2022/07/04 02:25:51;;;;;;;;;;;;;;;;;;5034571;28;19909;-22
2022/07/04 02:28:18;;;;;;;;;;;;;;;;;;5035851;28;19913;-22
2022/07/04 02:30:44;;;;;;;;;;;;;;;;;;5035846;28;19917;-22
2022/07/04 02:33:10;;;;;;;;;;;;;;;;;;5035722;28;19913;-22
2022/07/04 02:35:36;;;;;;;;;;;;;;;;;;5034708;28;20459;-22
2022/07/04 02:38:02;;;;;;;;;;;;;;;;;;5035686;28;19917;-23
2022/07/04 02:40:28;;;;;;;;;;;;;;;;;;5036185;28;19913;-21
2022/07/04 02:42:54;;;;;;;;;;;;;;;;;;5034602;28;20382;-23
2022/07/04 02:45:19;;;;;;;;;;;;;;;;;;5036102;28;20368;-22
2022/07/04 02:47:45;;;;;;;;;;;;;;;;;;5035839;28;19909;-22
2022/07/04 02:50:11;;;;;;;;;;;;;;;;;;5035734;28;19913;-22
2022/07/04 02:52:37;;;;;;;;;;;;;;;;;;5035443;28;20348;-23
2022/07/04 02:55:04;;;;;;;;;;;;;;;;;;5035917;28;20348;-21
2022/07/04 02:57:30;;;;;;;;;;;;;;;;;;5035389;28;19913;-21
2022/07/04 02:59:56;;;;;;;;;;;;;;;;;;5035337;28;19997;-23
2022/07/04 03:02:22;;;;;;;;;;;;;;;;;;5035326;28;20023;-22
2022/07/04 03:04:48;;;;;;;;;;;;;;;;;;5035292;28;19913;-22
2022/07/04 03:07:14;;;;;;;;;;;;;;;;;;5035249;28;19964;-22
2022/07/04 03:09:40;;;;;;;;;;;;;;;;;;5035451;28;20311;-21
2022/07/04 03:12:06;;;;;;;;;;;;;;;;;;5035543;28;19960;-23
2022/07/04 03:14:31;;;;;;;;;;;;;;;;;;5035396;28;20063;-22
2022/07/04 03:16:58;;;;;;;;;;;;;;;;;;5035429;28;19975;-22
2022/07/04 03:19:24;;;;;;;;;;;;;;;;;;5035081;28;20007;-22
2022/07/04 03:21:50;;;;;;;;;;;;;;;;;;5035052;28;19945;-22
2022/07/04 03:24:16;;;;;;;;;;;;;;;;;;5035095;28;20003;-22
2022/07/04 03:26:42;;;;;;;;;;;;;;;;;;5035024;28;19914;-24
2022/07/04 03:29:07;;;;;;;;;;;;;;;;;;5035052;28;19913;-22
2022/07/04 03:31:34;;;;;;;;;;;;;;;;;;5034983;28;20331;-21
2022/07/04 03:34:00;;;;;;;;;;;;;;;;;;5035079;28;20248;-22
2022/07/04 03:36:26;;;;;;;;;;;;;;;;;;5036209;28;19917;-21
2022/07/04 03:38:52;;;;;;;;;;;;;;;;;;5039641;28;20344;-22
2022/07/04 03:41:18;;;;;;;;;;;;;;;;;;5039536;28;19955;-22
2022/07/04 03:43:44;;;;;;;;;;;;;;;;;;5038916;28;19913;-21
2022/07/04 03:46:10;;;;;;;;;;;;;;;;;;5039565;28;19960;-22
2022/07/04 03:48:36;;;;;;;;;;;;;;;;;;5038852;28;19921;-22
2022/07/04 03:51:02;;;;;;;;;;;;;;;;;;5038902;28;20367;-22
2022/07/04 03:53:28;;;;;;;;;;;;;;;;;;5038654;28;19913;-22
2022/07/04 03:55:54;;;;;;;;;;;;;;;;;;5038589;28;19917;-22
2022/07/04 03:58:20;;;;;;;;;;;;;;;;;;5038814;28;19921;-22
2022/07/04 04:00:46;;;;;;;;;;;;;;;;;;5038861;28;20004;-22
2022/07/04 04:05:57;;;;;;;;;;;;;;;;;;5038402;28;19925;-22
2022/07/04 04:08:23;;;;;;;;;;;;;;;;;;5038095;28;20364;-22
2022/07/04 04:10:49;;;;;;;;;;;;;;;;;;5038375;28;19920;-26
2022/07/04 04:13:15;;;;;;;;;;;;;;;;;;5038349;28;20318;-22
2022/07/04 04:15:41;;;;;;;;;;;;;;;;;;5038137;28;19979;-21
2022/07/04 04:18:07;;;;;;;;;;;;;;;;;;5038499;28;19913;-22
2022/07/04 04:20:33;;;;;;;;;;;;;;;;;;5038207;28;20359;-27
2022/07/04 04:22:59;;;;;;;;;;;;;;;;;;5037818;28;19920;-22
2022/07/04 04:25:24;;;;;;;;;;;;;;;;;;5037904;28;19913;-22
2022/07/04 04:27:50;;;;;;;;;;;;;;;;;;5037888;28;19935;-24
2022/07/04 04:30:16;;;;;;;;;;;;;;;;;;5037737;28;19920;-22
2022/07/04 04:32:42;;;;;;;;;;;;;;;;;;5037763;28;20244;-21
2022/07/04 04:35:08;;;;;;;;;;;;;;;;;;5037843;28;20337;-21
2022/07/04 04:37:34;;;;;;;;;;;;;;;;;;5037762;28;19914;-24
2022/07/04 04:40:00;;;;;;;;;;;;;;;;;;5037680;28;19913;-22
2022/07/04 04:42:26;;;;;;;;;;;;;;;;;;5036770;28;19910;-21
2022/07/04 04:44:52;;;;;;;;;;;;;;;;;;5038431;28;19924;-21
2022/07/04 04:47:18;;;;;;;;;;;;;;;;;;5037877;28;20237;-22
2022/07/04 04:49:44;;;;;;;;;;;;;;;;;;5037919;28;19913;-23
2022/07/04 04:52:11;;;;;;;;;;;;;;;;;;5037873;28;20009;-21
2022/07/04 04:54:37;;;;;;;;;;;;;;;;;;5037472;28;19923;-21
2022/07/04 04:57:03;;;;;;;;;;;;;;;;;;5036445;28;19995;-22
2022/07/04 04:59:29;;;;;;;;;;;;;;;;;;5037912;28;20083;-22
2022/07/04 05:01:55;;;;;;;;;;;;;;;;;;5037264;28;19920;-21
2022/07/04 05:04:21;;;;;;;;;;;;;;;;;;5038062;28;19917;-21
2022/07/04 05:06:47;;;;;;;;;;;;;;;;;;5037723;28;19975;-21
2022/07/04 05:09:13;;;;;;;;;;;;;;;;;;5037256;28;19917;-20
2022/07/04 05:11:39;;;;;;;;;;;;;;;;;;5037155;28;19920;-21
2022/07/04 05:14:05;;;;;;;;;;;;;;;;;;5036010;28;20256;-22
2022/07/04 05:16:31;;;;;;;;;;;;;;;;;;5037560;28;20374;-21
2022/07/04 05:18:57;;;;;;;;;;;;;;;;;;5037362;28;20003;-22
2022/07/04 05:21:26;;;;;;;;;;;;;;;;;;5036981;28;19936;-22
2022/07/04 05:23:52;;;;;;;;;;;;;;;;;;5037001;28;19913;-23
2022/07/04 05:26:17;;;;;;;;;;;;;;;;;;5036983;28;19920;-22
2022/07/04 05:28:43;;;;;;;;;;;;;;;;;;5037094;28;19913;-22
2022/07/04 05:31:09;;;;;;;;;;;;;;;;;;5036923;28;19909;-22
2022/07/04 05:33:35;;;;;;;;;;;;;;;;;;5036710;28;19913;-21
2022/07/04 05:36:01;;;;;;;;;;;;;;;;;;5036939;28;19924;-22
2022/07/04 05:38:27;;;;;;;;;;;;;;;;;;5035874;28;19913;-22
2022/07/04 05:40:54;;;;;;;;;;;;;;;;;;5036775;28;20307;-22
2022/07/04 05:43:21;;;;;;;;;;;;;;;;;;5036866;28;19913;-21
2022/07/04 05:45:48;;;;;;;;;;;;;;;;;;5036626;28;20000;-22
2022/07/04 05:48:14;;;;;;;;;;;;;;;;;;5036513;28;19979;-22
2022/07/04 05:50:40;;;;;;;;;;;;;;;;;;5036285;28;20284;-22
2022/07/04 05:53:06;;;;;;;;;;;;;;;;;;5036325;28;19913;-21
2022/07/04 05:55:33;;;;;;;;;;;;;;;;;;5035110;28;20422;-22
2022/07/04 05:57:59;;;;;;;;;;;;;;;;;;5036592;28;19924;-22
2022/07/04 06:03:17;;;;;;;;;;;;;;;;;;5386958;23;19959;-26
2022/07/04 06:05:43;;;;;;;;;;;;;;;;;;5055153;28;19913;-25
2022/07/04 06:08:09;;;;;;;;;;;;;;;;;;5056185;28;19969;-26
2022/07/04 06:10:35;;;;;;;;;;;;;;;;;;5055960;28;19913;-26
2022/07/04 06:13:01;;;;;;;;;;;;;;;;;;5056071;28;20274;-26
2022/07/04 06:15:27;;;;;;;;;;;;;;;;;;5055948;28;19924;-25
2022/07/04 06:17:53;;;;;;;;;;;;;;;;;;5055980;28;19908;-26
2022/07/04 06:20:19;;;;;;;;;;;;;;;;;;5056192;28;19913;-26
2022/07/04 06:22:45;;;;;;;;;;;;;;;;;;5056000;28;19967;-24
2022/07/04 06:25:11;;;;;;;;;;;;;;;;;;5055722;28;20003;-24
2022/07/04 06:27:37;;;;;;;;;;;;;;;;;;5055739;28;19944;-26
2022/07/04 06:30:03;;;;;;;;;;;;;;;;;;5055632;28;20264;-26
2022/07/04 06:32:29;;;;;;;;;;;;;;;;;;5055940;28;19909;-27
2022/07/04 06:37:40;;;;;;;;;;;;;;;;;;5055659;28;20002;-24
2022/07/04 06:40:05;;;;;;;;;;;;;;;;;;5055429;28;19956;-25
2022/07/04 06:42:31;;;;;;;;;;;;;;;;;;5054513;28;20343;-26
2022/07/04 06:44:57;;;;;;;;;;;;;;;;;;5055401;28;19917;-26
2022/07/04 06:47:24;;;;;;;;;;;;;;;;;;5055422;28;19970;-26
2022/07/04 06:49:50;;;;;;;;;;;;;;;;;;5055270;28;19936;-25
2022/07/04 06:52:16;;;;;;;;;;;;;;;;;;5054921;28;19937;-25
2022/07/04 06:54:42;;;;;;;;;;;;;;;;;;5055139;28;19991;-26
2022/07/04 06:57:07;;;;;;;;;;;;;;;;;;5055325;28;19913;-25
2022/07/04 06:59:33;;;;;;;;;;;;;;;;;;5055049;28;20339;-26
2022/07/04 07:01:59;;;;;;;;;;;;;;;;;;5055235;28;19916;-26
2022/07/04 07:04:25;;;;;;;;;;;;;;;;;;5055320;28;20236;-26
2022/07/04 07:06:51;;;;;;;;;;;;;;;;;;5055172;28;19951;-25
2022/07/04 07:09:17;;;;;;;;;;;;;;;;;;5055018;28;19963;-25
2022/07/04 07:11:43;;;;;;;;;;;;;;;;;;5054997;28;19916;-25
2022/07/04 07:14:09;;;;;;;;;;;;;;;;;;5053956;28;19996;-25
2022/07/04 07:16:35;;;;;;;;;;;;;;;;;;5054999;28;20411;-25
2022/07/04 07:19:01;;;;;;;;;;;;;;;;;;5055036;28;19916;-26
2022/07/04 07:21:27;;;;;;;;;;;;;;;;;;5055383;28;19969;-26
2022/07/04 07:23:53;;;;;;;;;;;;;;;;;;5054880;28;20370;-26
2022/07/04 07:26:19;;;;;;;;;;;;;;;;;;5055412;28;19916;-26
2022/07/04 07:28:45;;;;;;;;;;;;;;;;;;5053797;28;20074;-26
2022/07/04 07:31:11;;;;;;;;;;;;;;;;;;5055334;28;19936;-26
2022/07/04 07:33:38;;;;;;;;;;;;;;;;;;5054825;28;19913;-25
2022/07/04 07:36:04;;;;;;;;;;;;;;;;;;5055133;28;19948;-26
2022/07/04 07:38:30;;;;;;;;;;;;;;;;;;5055162;28;20329;-25
2022/07/04 07:40:55;;;;;;;;;;;;;;;;;;5055108;28;19913;-25
2022/07/04 07:43:22;;;;;;;;;;;;;;;;;;5055205;28;19909;-26
2022/07/04 07:45:48;;;;;;;;;;;;;;;;;;5054884;28;19920;-26
2022/07/04 07:48:14;;;;;;;;;;;;;;;;;;5054635;28;20416;-26
2022/07/04 07:50:40;;;;;;;;;;;;;;;;;;5055007;28;19917;-25
2022/07/04 07:53:07;;;;;;;;;;;;;;;;;;5054791;28;19912;-26
2022/07/04 07:55:33;;;;;;;;;;;;;;;;;;5054811;28;20244;-26
2022/07/04 07:57:59;;;;;;;;;;;;;;;;;;5054653;28;19909;-25
2022/07/04 08:00:25;;;;;;;;;;;;;;;;;;5054652;28;19912;-25
2022/07/04 08:05:36;;;;;;;;;;;;;;;;;;5054843;28;19919;-26
2022/07/04 08:08:02;;;;;;;;;;;;;;;;;;5054498;28;19974;-25
2022/07/04 08:10:28;;;;;;;;;;;;;;;;;;5054486;28;19917;-26
2022/07/04 08:12:55;;;;;;;;;;;;;;;;;;5054387;28;19966;-25
2022/07/04 08:15:21;;;;;;;;;;;;;;;;;;5053322;28;20271;-26
2022/07/04 08:17:47;;;;;;;;;;;;;;;;;;5054519;28;19909;-25
2022/07/04 08:20:13;;;;;;;;;;;;;;;;;;5054944;28;20246;-25
2022/07/04 08:22:39;;;;;;;;;;;;;;;;;;5055895;28;19909;-25
2022/07/04 08:25:05;;;;;;;;;;;;;;;;;;5058288;28;19912;-26
2022/07/04 08:27:31;;;;;;;;;;;;;;;;;;5058273;28;19915;-26
2022/07/04 08:29:57;;;;;;;;;;;;;;;;;;5058004;28;20421;-25
2022/07/04 08:32:23;;;;;;;;;;;;;;;;;;5058231;28;19991;-26
2022/07/04 08:34:49;;;;;;;;;;;;;;;;;;5057859;28;19924;-25
2022/07/04 08:37:15;;;;;;;;;;;;;;;;;;5057885;28;20021;-26
2022/07/04 08:39:41;;;;;;;;;;;;;;;;;;5057789;28;20297;-25
2022/07/04 08:42:07;;;;;;;;;;;;;;;;;;5058339;28;19916;-26
2022/07/04 08:44:33;;;;;;;;;;;;;;;;;;5056973;28;19912;-26
2022/07/04 08:46:59;;;;;;;;;;;;;;;;;;5057879;28;19992;-26
2022/07/04 08:49:25;;;;;;;;;;;;;;;;;;5057783;28;19912;-25
2022/07/04 08:51:52;;;;;;;;;;;;;;;;;;5057740;28;19908;-26
2022/07/04 08:59:50;;;;;;;;;;;;;;;;;;5057777;28;19978;-25
2022/07/04 09:02:16;;;;;;;;;;;;;;;;;;5057193;28;19966;-26
2022/07/04 09:04:42;;;;;;;;;;;;;;;;;;5057631;28;19912;-23
2022/07/04 09:07:08;;;;;;;;;;;;;;;;;;5057372;28;19915;-24
2022/07/04 09:09:34;;;;;;;;;;;;;;;;;;5057935;28;19995;-24
2022/07/04 09:12:01;;;;;;;;;;;;;;;;;;5057332;28;19962;-24
2022/07/04 09:14:27;;;;;;;;;;;;;;;;;;5057290;28;19913;-24
2022/07/04 09:16:54;;;;;;;;;;;;;;;;;;5057253;28;20470;-24
2022/07/04 09:19:20;;;;;;;;;;;;;;;;;;5057373;28;20102;-24
2022/07/04 09:21:46;;;;;;;;;;;;;;;;;;5057327;28;19952;-24
2022/07/04 09:24:12;;;;;;;;;;;;;;;;;;5057542;28;19970;-25
2022/07/04 09:26:38;;;;;;;;;;;;;;;;;;5056972;28;19913;-25
2022/07/04 09:29:04;;;;;;;;;;;;;;;;;;5057024;28;19919;-25
2022/07/04 09:31:30;;;;;;;;;;;;;;;;;;5056977;28;19916;-25
2022/07/04 09:33:57;;;;;;;;;;;;;;;;;;5055654;28;19978;-25
2022/07/04 09:36:23;;;;;;;;;;;;;;;;;;5057020;28;19913;-25
2022/07/04 09:38:49;;;;;;;;;;;;;;;;;;5055877;28;19970;-25
2022/07/04 09:41:34;;;;;;;;;;;;;;;;;;5055718;28;19923;-25
2022/07/04 09:44:00;;;;;;;;;;;;;;;;;;5056660;28;19978;-25
2022/07/04 09:46:26;;;;;;;;;;;;;;;;;;5055470;28;19913;-24
2022/07/04 09:48:52;;;;;;;;;;;;;;;;;;5056512;28;20003;-24
2022/07/04 09:51:18;;;;;;;;;;;;;;;;;;5056570;28;19948;-25
2022/07/04 09:53:45;;;;;;;;;;;;;;;;;;5056397;28;19913;-24
2022/07/04 09:56:12;;;;;;;;;;;;;;;;;;5056320;28;19920;-24
2022/07/04 09:58:40;;;;;;;;;;;;;;;;;;5054750;28;20481;-25
2022/07/04 10:01:06;;;;;;;;;;;;;;;;;;5056250;28;19913;-25
2022/07/04 10:03:34;;;;;;;;;;;;;;;;;;5056231;28;20306;-24
2022/07/04 10:06:00;;;;;;;;;;;;;;;;;;5056466;28;20251;-25
2022/07/04 10:08:26;;;;;;;;;;;;;;;;;;5056131;28;19967;-25
2022/07/04 10:10:52;;;;;;;;;;;;;;;;;;5055178;28;19928;-25
2022/07/04 10:13:19;;;;;;;;;;;;;;;;;;5056030;28;20022;-24
2022/07/04 10:15:45;;;;;;;;;;;;;;;;;;5056165;28;19950;-25
2022/07/04 10:18:11;;;;;;;;;;;;;;;;;;5056508;28;19908;-26
2022/07/04 10:20:37;;;;;;;;;;;;;;;;;;5056177;28;19924;-26
2022/07/04 10:23:03;;;;;;;;;;;;;;;;;;5055914;28;19913;-26
2022/07/04 10:25:29;;;;;;;;;;;;;;;;;;5056113;28;19913;-26
2022/07/04 10:27:55;;;;;;;;;;;;;;;;;;5055906;28;19908;-26
2022/07/04 10:30:21;;;;;;;;;;;;;;;;;;5055837;28;20000;-25
2022/07/04 10:32:48;;;;;;;;;;;;;;;;;;5055706;28;19913;-26
2022/07/04 10:35:14;;;;;;;;;;;;;;;;;;5055389;28;19982;-25
2022/07/04 10:37:40;;;;;;;;;;;;;;;;;;5055936;28;20297;-25
2022/07/04 10:40:06;;;;;;;;;;;;;;;;;;5054497;28;19912;-25
2022/07/04 10:42:32;;;;;;;;;;;;;;;;;;5055718;28;19912;-25
2022/07/04 10:44:58;;;;;;;;;;;;;;;;;;5055059;28;20311;-25
2022/07/04 10:47:24;;;;;;;;;;;;;;;;;;5055446;28;19909;-25
2022/07/04 10:49:50;;;;;;;;;;;;;;;;;;5055467;28;19924;-25
2022/07/04 10:52:16;;;;;;;;;;;;;;;;;;5055060;28;19991;-25
2022/07/04 10:54:42;;;;;;;;;;;;;;;;;;5055246;28;20358;-25
2022/07/04 10:57:08;;;;;;;;;;;;;;;;;;5055137;28;19912;-25
2022/07/04 10:59:34;;;;;;;;;;;;;;;;;;5055632;28;19983;-25
2022/07/04 11:02:01;;;;;;;;;;;;;;;;;;5055211;28;20079;-25
2022/07/04 11:04:27;;;;;;;;;;;;;;;;;;5055507;28;19916;-25
2022/07/04 11:06:55;;;;;;;;;;;;;;;;;;5055257;28;20375;-25
2022/07/04 11:09:21;;;;;;;;;;;;;;;;;;5055217;28;19924;-25
2022/07/04 11:11:47;;;;;;;;;;;;;;;;;;5055418;28;19966;-25
2022/07/04 11:14:13;;;;;;;;;;;;;;;;;;5055134;28;19912;-25
2022/07/04 11:16:39;;;;;;;;;;;;;;;;;;5055611;28;19962;-25
2022/07/04 11:19:05;;;;;;;;;;;;;;;;;;5054958;28;19909;-25
2022/07/04 11:21:33;;;;;;;;;;;;;;;;;;5054984;28;19920;-25
2022/07/04 11:23:59;;;;;;;;;;;;;;;;;;5055050;28;19909;-25
2022/07/04 11:26:25;;;;;;;;;;;;;;;;;;5054761;28;20082;-25
2022/07/04 11:28:51;;;;;;;;;;;;;;;;;;5055165;28;19920;-25
2022/07/04 11:31:17;;;;;;;;;;;;;;;;;;5054870;28;19963;-25
2022/07/04 11:33:43;;;;;;;;;;;;;;;;;;5053847;28;19913;-25
2022/07/04 11:36:09;;;;;;;;;;;;;;;;;;5054653;28;19913;-25
2022/07/04 11:38:35;;;;;;;;;;;;;;;;;;5054872;28;20031;-25
2022/07/04 11:46:30;;;;;;;;;;;;;;;;;;5055102;28;19923;-25
2022/07/04 11:48:56;;;;;;;;;;;;;;;;;;5055053;28;20004;-24
2022/07/04 11:51:22;;;;;;;;;;;;;;;;;;5053665;28;19966;-25
2022/07/04 11:53:48;;;;;;;;;;;;;;;;;;5054751;28;19919;-25
2022/07/04 11:56:14;;;;;;;;;;;;;;;;;;5054646;28;19916;-25
2022/07/04 11:58:40;;;;;;;;;;;;;;;;;;5058081;28;20324;-25
2022/07/04 12:01:06;;;;;;;;;;;;;;;;;;5057723;28;20277;-25
2022/07/04 12:03:32;;;;;;;;;;;;;;;;;;5058347;28;19923;-25
2022/07/04 12:05:58;;;;;;;;;;;;;;;;;;5058526;28;19924;-25
2022/07/04 12:08:24;;;;;;;;;;;;;;;;;;5058554;28;20263;-25
2022/07/04 12:10:50;;;;;;;;;;;;;;;;;;5058364;28;20073;-25
2022/07/04 12:13:17;;;;;;;;;;;;;;;;;;5058310;28;19923;-25
2022/07/04 12:15:43;;;;;;;;;;;;;;;;;;5058275;28;20007;-25
2022/07/04 12:18:09;;;;;;;;;;;;;;;;;;5058351;28;20411;-25
2022/07/04 12:20:35;;;;;;;;;;;;;;;;;;5058227;28;19936;-25
2022/07/04 12:23:01;;;;;;;;;;;;;;;;;;5058055;28;19920;-25
2022/07/04 12:25:27;;;;;;;;;;;;;;;;;;5058677;28;19913;-25
2022/07/04 12:27:54;;;;;;;;;;;;;;;;;;5059230;28;19919;-25
2022/07/04 12:30:20;;;;;;;;;;;;;;;;;;5058106;28;20009;-26
2022/07/04 12:32:46;;;;;;;;;;;;;;;;;;5057015;28;20283;-25
2022/07/04 12:35:12;;;;;;;;;;;;;;;;;;5057873;28;19917;-25
2022/07/04 12:37:38;;;;;;;;;;;;;;;;;;5058529;28;19919;-25
2022/07/04 12:40:04;;;;;;;;;;;;;;;;;;5058304;28;19916;-25
2022/07/04 12:42:30;;;;;;;;;;;;;;;;;;5057899;28;19927;-25
2022/07/04 12:44:56;;;;;;;;;;;;;;;;;;5057682;28;19912;-25
2022/07/04 12:47:22;;;;;;;;;;;;;;;;;;5057690;28;19916;-25
2022/07/04 12:49:48;;;;;;;;;;;;;;;;;;5056367;28;19924;-26
2022/07/04 12:52:14;;;;;;;;;;;;;;;;;;5057532;28;19916;-25
2022/07/04 12:54:40;;;;;;;;;;;;;;;;;;5057212;28;19920;-26
2022/07/04 12:57:06;;;;;;;;;;;;;;;;;;5057666;28;20311;-25
2022/07/04 12:59:32;;;;;;;;;;;;;;;;;;5057446;28;20248;-25
2022/07/04 13:01:58;;;;;;;;;;;;;;;;;;5057415;28;19999;-25
2022/07/04 13:04:24;;;;;;;;;;;;;;;;;;5056411;28;19916;-25
2022/07/04 13:06:51;;;;;;;;;;;;;;;;;;5056294;28;19940;-25
2022/07/04 13:09:17;;;;;;;;;;;;;;;;;;5056005;28;20299;-25
2022/07/04 13:14:27;;;;;;;;;;;;;;;;;;5056150;28;19978;-25
2022/07/04 13:16:53;;;;;;;;;;;;;;;;;;5055830;28;20220;-26
2022/07/04 13:19:19;;;;;;;;;;;;;;;;;;5055943;28;19912;-25
2022/07/04 13:21:45;;;;;;;;;;;;;;;;;;5055833;28;19909;-25
2022/07/04 13:24:11;;;;;;;;;;;;;;;;;;5055818;28;20351;-25
2022/07/04 13:26:37;;;;;;;;;;;;;;;;;;5056769;28;19913;-26
2022/07/04 13:29:03;;;;;;;;;;;;;;;;;;5055868;28;20382;-25
2022/07/04 13:31:29;;;;;;;;;;;;;;;;;;5056363;28;19909;-25
2022/07/04 13:33:55;;;;;;;;;;;;;;;;;;5055769;28;20254;-25
2022/07/04 13:36:21;;;;;;;;;;;;;;;;;;5055771;28;19913;-25
2022/07/04 13:38:48;;;;;;;;;;;;;;;;;;5056215;28;19916;-25
2022/07/04 13:41:14;;;;;;;;;;;;;;;;;;5055687;28;19913;-26
2022/07/04 13:43:40;;;;;;;;;;;;;;;;;;5056241;28;20007;-25
2022/07/04 13:46:06;;;;;;;;;;;;;;;;;;5054681;28;19924;-26
2022/07/04 13:48:33;;;;;;;;;;;;;;;;;;5055736;28;19912;-26
2022/07/04 13:50:58;;;;;;;;;;;;;;;;;;5055619;28;19913;-25
2022/07/04 13:53:24;;;;;;;;;;;;;;;;;;5055407;28;19909;-25
2022/07/04 13:55:50;;;;;;;;;;;;;;;;;;5055434;28;20066;-25
2022/07/04 13:58:16;;;;;;;;;;;;;;;;;;5055816;28;20000;-25
2022/07/04 14:00:44;;;;;;;;;;;;;;;;;;5055966;28;19913;-25
2022/07/04 14:03:10;;;;;;;;;;;;;;;;;;4983242;28;2056595;-25
2022/07/04 14:05:36;;;;;;;;;;;;;;;;;;5056455;28;20008;-25
2022/07/04 14:08:02;;;;;;;;;;;;;;;;;;5056206;28;19905;-25
2022/07/04 14:10:28;;;;;;;;;;;;;;;;;;5056290;28;19920;-25
2022/07/04 14:12:54;;;;;;;;;;;;;;;;;;5056676;28;20243;-25
2022/07/04 14:15:20;;;;;;;;;;;;;;;;;;5056040;28;20373;-25
2022/07/04 14:17:46;;;;;;;;;;;;;;;;;;5056660;28;19916;-25
2022/07/04 14:20:12;;;;;;;;;;;;;;;;;;5055474;28;20259;-25
2022/07/04 14:22:39;;;;;;;;;;;;;;;;;;5055959;28;20389;-25
2022/07/04 14:25:04;;;;;;;;;;;;;;;;;;5056283;28;20351;-25
2022/07/04 14:27:30;;;;;;;;;;;;;;;;;;5056300;28;19962;-25
2022/07/04 14:29:56;;;;;;;;;;;;;;;;;;5056483;28;20411;-25
2022/07/04 14:32:22;;;;;;;;;;;;;;;;;;5056044;28;19919;-25
2022/07/04 14:34:48;;;;;;;;;;;;;;;;;;5055719;28;20030;-25
2022/07/04 14:37:14;;;;;;;;;;;;;;;;;;5054856;28;19913;-26
2022/07/04 14:39:40;;;;;;;;;;;;;;;;;;5055780;28;19963;-26
2022/07/04 14:42:06;;;;;;;;;;;;;;;;;;5055575;28;19944;-25
2022/07/04 14:44:37;;;;;;;;;;;;;;;;;;5055558;28;19913;-25
2022/07/04 14:47:03;;;;;;;;;;;;;;;;;;5055526;28;19913;-25
2022/07/04 14:49:29;;;;;;;;;;;;;;;;;;5055589;28;19912;-25
2022/07/04 14:51:57;;;;;;;;;;;;;;;;;;5056087;28;19920;-26
2022/07/04 14:54:23;;;;;;;;;;;;;;;;;;5055385;28;19923;-25
2022/07/04 14:56:49;;;;;;;;;;;;;;;;;;5054430;28;19909;-26
2022/07/04 14:59:15;;;;;;;;;;;;;;;;;;5055383;28;19917;-26
2022/07/04 15:01:41;;;;;;;;;;;;;;;;;;5055396;28;19920;-25
2022/07/04 15:04:07;;;;;;;;;;;;;;;;;;5055134;28;20008;-25
2022/07/04 15:06:33;;;;;;;;;;;;;;;;;;5055234;28;19947;-25
2022/07/04 15:08:59;;;;;;;;;;;;;;;;;;5054209;28;19912;-26
2022/07/04 15:11:25;;;;;;;;;;;;;;;;;;5055249;28;19978;-25
2022/07/04 15:13:51;;;;;;;;;;;;;;;;;;5055354;28;19912;-26
2022/07/04 15:16:17;;;;;;;;;;;;;;;;;;5054001;28;19971;-26
2022/07/04 15:18:43;;;;;;;;;;;;;;;;;;5055340;28;19913;-25
2022/07/04 15:24:13;;;;;;;;;;;;;;;;;;5055074;28;20346;-25
2022/07/04 15:26:39;;;;;;;;;;;;;;;;;;5055302;28;19944;-25
2022/07/04 15:29:05;;;;;;;;;;;;;;;;;;5055044;28;19921;-25
2022/07/04 15:31:31;;;;;;;;;;;;;;;;;;5053982;28;19934;-25
2022/07/04 15:33:57;;;;;;;;;;;;;;;;;;5054348;28;19913;-25
2022/07/04 15:36:23;;;;;;;;;;;;;;;;;;5054929;28;19913;-25
2022/07/04 15:38:49;;;;;;;;;;;;;;;;;;5055082;28;19919;-25
2022/07/04 15:41:15;;;;;;;;;;;;;;;;;;5054832;28;19909;-25
2022/07/04 15:43:41;;;;;;;;;;;;;;;;;;5055003;28;20334;-25
2022/07/04 15:46:07;;;;;;;;;;;;;;;;;;5055243;28;19913;-25
2022/07/04 15:48:33;;;;;;;;;;;;;;;;;;5054955;28;20278;-25
2022/07/04 15:50:59;;;;;;;;;;;;;;;;;;5054822;28;20008;-25
2022/07/04 15:53:25;;;;;;;;;;;;;;;;;;5054808;28;19912;-25
2022/07/04 15:55:51;;;;;;;;;;;;;;;;;;5054695;28;20398;-26
2022/07/04 15:58:17;;;;;;;;;;;;;;;;;;5054709;28;19913;-25
2022/07/04 16:00:43;;;;;;;;;;;;;;;;;;5055189;28;19919;-25
2022/07/04 16:03:10;;;;;;;;;;;;;;;;;;5054178;28;20367;-25
2022/07/04 16:05:36;;;;;;;;;;;;;;;;;;5054474;28;19953;-26
2022/07/04 16:08:02;;;;;;;;;;;;;;;;;;5054525;28;19975;-25
2022/07/04 16:10:28;;;;;;;;;;;;;;;;;;5054462;28;20011;-25
2022/07/04 16:12:54;;;;;;;;;;;;;;;;;;5053365;28;20002;-25
2022/07/04 16:15:20;;;;;;;;;;;;;;;;;;5054717;28;20250;-25
2022/07/04 16:17:46;;;;;;;;;;;;;;;;;;5054662;28;19992;-25
2022/07/04 16:20:12;;;;;;;;;;;;;;;;;;5053418;28;20275;-25
2022/07/04 16:22:38;;;;;;;;;;;;;;;;;;5054205;28;20292;-25
2022/07/04 16:25:04;;;;;;;;;;;;;;;;;;5054550;28;19949;-25
2022/07/04 16:27:30;;;;;;;;;;;;;;;;;;5054866;28;19963;-25
2022/07/04 16:29:56;;;;;;;;;;;;;;;;;;5054719;28;19967;-25
2022/07/04 16:32:24;;;;;;;;;;;;;;;;;;5054155;28;19909;-26
2022/07/04 16:34:50;;;;;;;;;;;;;;;;;;5054375;28;19921;-25
2022/07/04 16:37:16;;;;;;;;;;;;;;;;;;5054078;28;19909;-25
2022/07/04 16:39:42;;;;;;;;;;;;;;;;;;5054156;28;20289;-25
2022/07/04 16:42:08;;;;;;;;;;;;;;;;;;5054189;28;19995;-25
2022/07/04 16:44:34;;;;;;;;;;;;;;;;;;5056936;28;19913;-25
2022/07/04 16:47:00;;;;;;;;;;;;;;;;;;5057763;28;20389;-25
2022/07/04 16:49:26;;;;;;;;;;;;;;;;;;5057803;28;19940;-25
2022/07/04 16:51:52;;;;;;;;;;;;;;;;;;5058154;28;19966;-25
2022/07/04 16:54:18;;;;;;;;;;;;;;;;;;5058042;28;19974;-25
2022/07/04 16:56:44;;;;;;;;;;;;;;;;;;5057533;28;19909;-25
2022/07/04 16:59:10;;;;;;;;;;;;;;;;;;5057415;28;19924;-25
2022/07/04 17:01:36;;;;;;;;;;;;;;;;;;5058352;28;19959;-25
2022/07/04 17:04:02;;;;;;;;;;;;;;;;;;5057276;28;19968;-26
2022/07/04 17:06:28;;;;;;;;;;;;;;;;;;5057324;28;19916;-25
2022/07/04 17:08:54;;;;;;;;;;;;;;;;;;5057625;28;19909;-25